SBJV Informação do Aeroporto

Informação da Pista
Runway 15 Length 5381 ft width 148 ft
Elevation 0 ft Threshold 330 ft Heading 0
Runway 33 Length 5381 ft Width 148 ft
Elevation 0 ft Threshold 0 ft Heading 0
Frequencias do Aeroporto
Tipo AFIS Nome TWR Frequência 118 MHZ
Navaids Aeroporto
Tipo NDB Name Gabi Frequência 245 KHZ
Tipo VOR-DME Name Joinville Frequência 115100 KHZ
Tempo do Aeroporto & NOTAM
ADDS - METARS form results

(0614 UTC 10 December 2019)
Data provider http://aviationweather.gov/metar/data/
 
Forecast for: SBJV (JOINVILLE , BR)
Text: TAF SBJV 092230Z 1000/1012 10005KT 9999 SCT025 TN18/1008Z TX22/1012Z
Forecast period: 0000 to 1200 UTC 10 December 2019
Forecast type: FROM: standard forecast or significant change
Winds: from the E (100 degrees) at 6 MPH (5 knots; 2.6 m/s)
Visibility: 6 or more miles 10+ km)
Ceiling: at least 12,000 feet AGL
Clouds: scattered clouds at 2500 feet AGL
Weather: no significant weather forecast for this period
Text: PROB30 1006/1012 23004KT SCT009 RMK PEL
Forecast period: 0600 to 1200 UTC 10 December 2019
Forecast type: PROBABLE: 30 percent likelihood of the following during this time
Winds: from the SW (230 degrees) at 5 MPH (4 knots; 2.1 m/s)
Visibility: missing
Ceiling: at least 12,000 feet AGL
Clouds: scattered clouds at 900 feet AGL
Weather: no significant weather forecast for this period